Time;durP1;ratioP1;P1;durP2;ratioP2;P2;SDS_P1;SDS_P2;PMS_P1;PMS_P2;Temp;Humidity;BMP_temperature;BMP_pressure;BME280_temperature;BME280_humidity;BME280_pressure;Samples;Min_cycle;Max_cycle;Signal;HPM_P1;HPM_P2
2023/04/17 00:00:09;;;;;;;13.67;10.80;;;12.00;1.00;;;;;;5046659;28;20234;-54
2023/04/17 00:02:38;;;;;;;12.27;11.07;;;12.00;1.00;;;;;;5047623;28;20188;-55
2023/04/17 00:05:08;;;;;;;12.83;11.17;;;12.00;1.00;;;;;;5041360;28;20859;-55
2023/04/17 00:07:37;;;;;;;12.37;11.07;;;12.00;1.00;;;;;;5047811;28;20455;-54
2023/04/17 00:10:06;;;;;;;12.70;11.10;;;11.90;1.00;;;;;;5046476;28;20582;-55
2023/04/17 00:12:32;;;;;;;11.77;10.57;;;12.00;1.00;;;;;;5048905;28;20439;-54
2023/04/17 00:14:58;;;;;;;12.33;10.93;;;12.00;1.00;;;;;;5045353;28;20758;-55
2023/04/17 00:17:24;;;;;;;12.50;11.20;;;12.00;1.00;;;;;;5045187;28;20454;-54
2023/04/17 00:19:50;;;;;;;11.53;10.30;;;11.90;1.00;;;;;;5045235;28;20189;-54
2023/04/17 00:22:15;;;;;;;11.23;10.00;;;11.90;1.00;;;;;;5043595;28;20484;-54
2023/04/17 00:24:41;;;;;;;12.70;11.00;;;12.00;1.00;;;;;;5043821;28;20263;-55
2023/04/17 00:27:06;;;;;;;11.27;10.07;;;11.90;1.00;;;;;;5047630;28;20237;-55
2023/04/17 00:29:33;;;;;;;12.10;10.83;;;11.80;1.00;;;;;;5046282;28;20209;-55
2023/04/17 00:31:58;;;;;;;12.10;10.30;;;11.80;1.00;;;;;;5044674;28;20724;-54
2023/04/17 00:34:24;;;;;;;12.47;11.17;;;11.70;1.00;;;;;;5042706;28;20447;-54
2023/04/17 00:36:50;;;;;;;11.13;9.67;;;11.70;1.00;;;;;;5047658;28;20451;-55
2023/04/17 00:39:16;;;;;;;12.67;11.00;;;11.50;1.00;;;;;;5050408;28;20192;-54
2023/04/17 00:41:41;;;;;;;11.23;9.67;;;11.60;1.00;;;;;;5048630;28;20193;-55
2023/04/17 00:44:07;;;;;;;11.17;9.97;;;11.40;1.00;;;;;;5047791;28;20197;-55
2023/04/17 00:46:33;;;;;;;11.53;10.33;;;11.40;1.00;;;;;;5048476;28;20277;-54
2023/04/17 00:48:59;;;;;;;11.00;9.53;;;11.50;1.00;;;;;;5049375;28;20191;-54
2023/04/17 00:51:26;;;;;;;11.20;10.10;;;11.40;1.00;;;;;;5043671;28;20194;-54
2023/04/17 00:53:53;;;;;;;11.90;10.50;;;11.50;1.00;;;;;;5036850;28;20442;-54
2023/04/17 00:56:19;;;;;;;13.83;11.27;;;11.60;1.00;;;;;;5045343;28;20581;-54
2023/04/17 00:58:45;;;;;;;11.60;10.40;;;11.70;1.00;;;;;;5046679;28;20446;-55
2023/04/17 01:01:11;;;;;;;11.00;9.90;;;11.70;1.00;;;;;;5043565;28;20450;-54
2023/04/17 01:03:36;;;;;;;11.90;9.53;;;11.70;1.00;;;;;;5042051;28;20196;-53
2023/04/17 01:06:02;;;;;;;11.37;10.17;;;11.60;1.00;;;;;;5045424;28;20196;-54
2023/04/17 01:08:33;;;;;;;10.93;9.83;;;11.60;1.00;;;;;;5041739;28;20184;-54
2023/04/17 01:10:59;;;;;;;11.13;9.20;;;11.60;1.00;;;;;;5040395;28;20311;-55
2023/04/17 01:13:25;;;;;;;11.80;10.53;;;11.60;1.00;;;;;;5043281;28;20533;-55
2023/04/17 01:15:50;;;;;;;10.60;9.50;;;11.50;1.00;;;;;;5044600;28;20184;-54
2023/04/17 01:18:16;;;;;;;9.70;8.70;;;11.50;1.00;;;;;;5045283;28;20196;-55
2023/04/17 01:20:42;;;;;;;9.67;8.37;;;11.70;1.00;;;;;;5041058;28;20763;-55
2023/04/17 01:23:07;;;;;;;8.90;8.00;;;11.60;1.00;;;;;;5042064;28;20279;-55
2023/04/17 01:25:33;;;;;;;10.40;8.87;;;11.70;1.00;;;;;;5041601;28;20201;-56
2023/04/17 01:27:59;;;;;;;9.63;8.10;;;11.70;1.00;;;;;;5045769;28;20272;-54
2023/04/17 01:30:25;;;;;;;10.00;8.97;;;11.70;1.00;;;;;;5044616;28;20246;-56
2023/04/17 01:32:53;;;;;;;9.43;7.50;;;11.70;1.00;;;;;;5040414;28;20762;-54
2023/04/17 01:35:19;;;;;;;8.67;7.77;;;11.80;1.00;;;;;;5052110;28;20234;-53
2023/04/17 01:37:44;;;;;;;8.20;7.37;;;11.80;1.00;;;;;;5041546;28;20442;-54
2023/04/17 01:40:10;;;;;;;8.47;7.10;;;11.70;1.00;;;;;;5047407;28;20189;-54
2023/04/17 01:42:36;;;;;;;8.20;7.40;;;11.70;1.00;;;;;;5046721;28;20197;-54
2023/04/17 01:45:02;;;;;;;7.63;6.60;;;11.70;1.00;;;;;;5040777;28;21064;-54
2023/04/17 01:47:27;;;;;;;9.47;7.70;;;11.80;1.00;;;;;;5042787;28;20199;-54
2023/04/17 01:49:53;;;;;;;7.73;6.33;;;11.70;1.00;;;;;;5041731;28;20522;-54
2023/04/17 01:52:19;;;;;;;7.20;6.50;;;11.60;1.00;;;;;;5044358;28;20196;-54
2023/04/17 01:54:44;;;;;;;7.20;6.47;;;11.60;1.00;;;;;;5046067;28;20548;-55
2023/04/17 01:57:10;;;;;;;7.33;6.50;;;11.60;1.00;;;;;;5044201;28;20204;-55
2023/04/17 01:59:35;;;;;;;5.80;5.17;;;11.60;1.00;;;;;;5039730;28;20244;-56
2023/04/17 02:02:01;;;;;;;7.17;6.47;;;11.60;1.00;;;;;;5047395;28;20208;-54
2023/04/17 02:04:27;;;;;;;5.33;4.77;;;11.50;1.00;;;;;;5044003;28;20192;-53
2023/04/17 02:06:52;;;;;;;5.37;4.87;;;11.60;1.00;;;;;;5040334;28;20224;-54
2023/04/17 02:09:18;;;;;;;5.37;4.87;;;11.60;1.00;;;;;;5042845;28;20205;-55
2023/04/17 02:11:44;;;;;;;5.07;4.57;;;11.60;1.00;;;;;;5042312;28;20245;-55
2023/04/17 02:14:09;;;;;;;5.43;4.93;;;11.60;1.00;;;;;;5043966;28;20188;-55
2023/04/17 02:16:36;;;;;;;4.47;3.87;;;11.60;1.00;;;;;;5042131;28;20208;-54
2023/04/17 02:19:02;;;;;;;4.83;4.37;;;11.70;1.00;;;;;;5041371;28;20177;-55
2023/04/17 02:21:28;;;;;;;5.00;4.50;;;11.70;1.00;;;;;;5050413;28;20439;-55
2023/04/17 02:23:53;;;;;;;5.30;4.80;;;11.60;1.00;;;;;;5048037;28;20429;-54
2023/04/17 02:26:19;;;;;;;5.40;4.90;;;11.70;1.00;;;;;;5048412;28;20180;-54
2023/04/17 02:28:45;;;;;;;5.27;4.77;;;11.80;1.00;;;;;;5048250;28;20639;-54
2023/04/17 02:31:12;;;;;;;5.80;5.20;;;11.80;1.00;;;;;;5049506;28;20444;-55
2023/04/17 02:33:37;;;;;;;5.70;5.07;;;11.70;1.00;;;;;;5050395;28;20322;-55
2023/04/17 02:36:05;;;;;;;5.47;4.97;;;11.70;1.00;;;;;;5046453;28;20542;-54
2023/04/17 02:38:30;;;;;;;6.43;5.73;;;11.70;1.00;;;;;;5049107;28;20995;-54
2023/04/17 02:40:57;;;;;;;5.60;5.00;;;11.70;1.00;;;;;;5045695;28;20440;-55
2023/04/17 02:43:23;;;;;;;6.10;5.50;;;11.70;1.00;;;;;;5051350;28;20195;-54
2023/04/17 02:45:48;;;;;;;6.80;6.20;;;11.70;1.00;;;;;;5047956;28;20450;-54
2023/04/17 02:48:15;;;;;;;6.97;5.80;;;11.70;1.00;;;;;;5048412;28;20224;-54
2023/04/17 02:50:40;;;;;;;6.60;6.00;;;11.60;1.00;;;;;;5039133;28;20263;-55
2023/04/17 02:53:06;;;;;;;6.20;5.60;;;11.60;1.00;;;;;;5047327;28;20545;-56
2023/04/17 02:55:32;;;;;;;6.90;6.20;;;11.60;1.00;;;;;;5048130;28;20227;-54
2023/04/17 02:57:58;;;;;;;7.40;6.60;;;11.50;1.00;;;;;;5046268;28;20467;-54
2023/04/17 03:00:25;;;;;;;6.93;6.23;;;11.50;1.00;;;;;;5049169;28;20203;-54
2023/04/17 03:02:51;;;;;;;7.10;6.40;;;11.50;1.00;;;;;;5045149;28;20193;-55
2023/04/17 03:05:19;;;;;;;7.63;6.10;;;11.40;1.00;;;;;;5047323;28;20943;-54
2023/04/17 03:07:44;;;;;;;6.27;5.70;;;11.40;1.00;;;;;;5048318;28;21056;-53
2023/04/17 03:10:10;;;;;;;6.10;5.50;;;11.40;1.00;;;;;;5047310;28;20579;-54
2023/04/17 03:12:36;;;;;;;6.77;6.07;;;11.30;1.00;;;;;;5045196;28;20238;-54
2023/04/17 03:15:02;;;;;;;6.30;5.30;;;11.30;1.00;;;;;;5046314;28;20583;-55
2023/04/17 03:17:27;;;;;;;6.23;5.50;;;11.30;1.00;;;;;;5047133;28;20604;-55
2023/04/17 03:19:53;;;;;;;8.57;6.40;;;11.40;1.00;;;;;;5047176;28;20189;-54
2023/04/17 03:22:18;;;;;;;7.30;6.37;;;11.40;1.00;;;;;;5047162;28;20235;-55
2023/04/17 03:24:44;;;;;;;8.10;7.37;;;11.30;1.00;;;;;;5045275;28;20699;-54
2023/04/17 03:27:10;;;;;;;6.80;6.10;;;11.40;1.00;;;;;;5047964;28;20180;-54
2023/04/17 03:29:35;;;;;;;6.70;6.00;;;11.30;1.00;;;;;;5051755;28;20205;-55
2023/04/17 03:32:01;;;;;;;8.00;6.27;;;11.30;1.00;;;;;;5046616;28;20551;-55
2023/04/17 03:34:27;;;;;;;7.33;6.07;;;11.30;1.00;;;;;;5047802;28;20638;-54
2023/04/17 03:36:53;;;;;;;6.83;6.10;;;11.40;1.00;;;;;;5044402;28;20196;-54
2023/04/17 03:39:19;;;;;;;6.60;6.00;;;11.40;1.00;;;;;;5047412;28;20546;-55
2023/04/17 03:41:45;;;;;;;6.03;5.43;;;11.20;1.00;;;;;;5046094;28;20196;-54
2023/04/17 03:44:11;;;;;;;7.40;6.20;;;11.30;1.00;;;;;;5050227;28;20467;-54
2023/04/17 03:46:37;;;;;;;7.07;6.37;;;11.40;1.00;;;;;;5046973;28;20447;-55
2023/04/17 03:49:03;;;;;;;7.03;6.00;;;11.30;1.00;;;;;;5047337;28;20449;-54
2023/04/17 03:51:30;;;;;;;6.20;5.60;;;11.30;1.00;;;;;;5045920;28;20447;-55
2023/04/17 03:53:56;;;;;;;7.00;5.70;;;11.30;1.00;;;;;;5046700;28;20456;-54
2023/04/17 03:56:21;;;;;;;6.27;5.67;;;11.30;1.00;;;;;;5047157;28;20794;-54
2023/04/17 03:58:47;;;;;;;6.27;5.67;;;11.30;1.00;;;;;;5046666;28;20227;-53
2023/04/17 04:01:13;;;;;;;7.03;5.67;;;11.30;1.00;;;;;;5042308;28;20189;-55
2023/04/17 04:03:39;;;;;;;5.67;5.17;;;11.30;1.00;;;;;;5045472;28;20192;-55
2023/04/17 04:06:06;;;;;;;5.53;4.70;;;11.30;1.00;;;;;;5043753;28;20451;-55
2023/04/17 04:08:32;;;;;;;6.10;5.50;;;11.30;1.00;;;;;;5046277;28;20447;-56
2023/04/17 04:10:59;;;;;;;6.93;6.23;;;11.20;1.00;;;;;;5045454;28;20494;-54
2023/04/17 04:13:25;;;;;;;5.90;5.30;;;11.30;1.00;;;;;;5044592;28;20268;-57
2023/04/17 04:15:50;;;;;;;7.00;6.07;;;11.30;1.00;;;;;;5037358;28;20547;-54
2023/04/17 04:18:16;;;;;;;6.17;5.57;;;11.30;1.00;;;;;;5045815;28;20188;-55
2023/04/17 04:20:42;;;;;;;6.40;5.80;;;11.30;1.00;;;;;;5044969;28;20193;-53
2023/04/17 04:23:08;;;;;;;7.20;6.40;;;11.30;1.00;;;;;;5043931;28;20195;-55
2023/04/17 04:25:34;;;;;;;6.90;6.20;;;11.30;1.00;;;;;;5046879;28;20451;-55
2023/04/17 04:28:00;;;;;;;7.90;7.03;;;11.40;1.00;;;;;;5042377;28;21215;-55
2023/04/17 04:30:26;;;;;;;8.13;7.20;;;11.40;1.00;;;;;;5042131;28;20220;-55
2023/04/17 04:32:52;;;;;;;8.97;7.47;;;11.30;1.00;;;;;;5041750;28;20970;-56
2023/04/17 04:35:17;;;;;;;7.67;6.87;;;11.30;1.00;;;;;;5041853;28;20451;-54
2023/04/17 04:37:45;;;;;;;7.47;6.63;;;11.20;1.00;;;;;;5042753;28;20220;-55
2023/04/17 04:40:12;;;;;;;7.23;6.10;;;11.20;1.00;;;;;;5043235;28;20183;-57
2023/04/17 04:42:41;;;;;;;6.53;5.93;;;11.10;1.00;;;;;;5038465;28;20591;-56
2023/04/17 04:45:08;;;;;;;6.77;6.17;;;11.10;1.00;;;;;;5043410;28;20441;-55
2023/04/17 04:47:34;;;;;;;8.17;6.60;;;11.10;1.00;;;;;;5044402;28;20466;-56
2023/04/17 04:50:00;;;;;;;7.23;5.83;;;11.10;1.00;;;;;;5045780;28;20462;-56
2023/04/17 04:52:26;;;;;;;7.90;6.63;;;11.10;1.00;;;;;;5045666;28;20955;-56
2023/04/17 04:54:53;;;;;;;7.50;6.50;;;11.10;6.90;;;;;;5049897;28;20702;-57
2023/04/17 04:57:18;;;;;;;6.60;4.90;;;11.10;23.40;;;;;;5045195;28;20188;-55
2023/04/17 04:59:44;;;;;;;4.37;3.60;;;11.10;81.40;;;;;;5034926;28;20429;-55
2023/04/17 05:02:10;;;;;;;4.13;3.50;;;11.00;99.90;;;;;;5043020;28;20220;-54
2023/04/17 05:04:35;;;;;;;3.10;2.80;;;11.00;99.90;;;;;;5044609;28;20207;-56
2023/04/17 05:07:03;;;;;;;3.23;2.63;;;11.00;99.90;;;;;;5045486;28;20189;-54
2023/04/17 05:09:30;;;;;;;2.27;2.07;;;11.00;99.90;;;;;;5043685;28;20231;-55
2023/04/17 05:11:56;;;;;;;1.83;1.70;;;11.00;99.90;;;;;;5042123;28;20446;-55
2023/04/17 05:14:22;;;;;;;1.70;1.43;;;11.10;99.90;;;;;;5044552;28;20473;-54
2023/04/17 05:16:47;;;;;;;1.83;1.73;;;11.10;99.90;;;;;;5041401;28;20192;-53
2023/04/17 05:19:13;;;;;;;1.97;1.77;;;11.20;99.90;;;;;;5031962;28;20655;-55
2023/04/17 05:21:38;;;;;;;2.67;2.43;;;11.20;99.90;;;;;;5034964;28;20184;-56
2023/04/17 05:24:04;;;;;;;3.33;3.03;;;11.30;99.90;;;;;;5044196;28;20212;-55
2023/04/17 05:26:30;;;;;;;3.60;3.30;;;11.30;58.70;;;;;;5038008;28;20184;-55
2023/04/17 05:28:55;;;;;;;2.83;2.63;;;11.20;27.90;;;;;;5041396;28;20644;-56
2023/04/17 05:31:21;;;;;;;4.90;4.47;;;11.10;25.20;;;;;;5037093;28;20212;-55
2023/04/17 05:33:46;;;;;;;4.00;3.70;;;11.10;17.60;;;;;;5038448;28;20196;-54
2023/04/17 05:36:12;;;;;;;4.77;4.30;;;11.10;11.30;;;;;;5039644;28;20584;-54
2023/04/17 05:38:38;;;;;;;4.70;4.20;;;11.10;13.30;;;;;;5042369;28;20238;-55
2023/04/17 05:41:06;;;;;;;5.37;4.87;;;11.10;4.30;;;;;;5043904;28;20192;-57
2023/04/17 05:43:32;;;;;;;6.10;5.53;;;11.10;9.00;;;;;;5044588;28;20188;-55
2023/04/17 05:45:58;;;;;;;4.50;4.10;;;11.20;1.00;;;;;;5046763;28;20488;-54
2023/04/17 05:48:23;;;;;;;4.70;4.30;;;11.20;1.00;;;;;;5042682;28;20459;-54
2023/04/17 05:50:49;;;;;;;5.57;5.07;;;11.30;1.00;;;;;;5039842;28;20223;-56
2023/04/17 05:53:15;;;;;;;6.70;5.50;;;11.30;1.00;;;;;;5047462;28;20595;-56
2023/04/17 05:55:41;;;;;;;5.83;5.10;;;11.30;1.00;;;;;;5044630;28;20537;-55
2023/04/17 05:58:06;;;;;;;7.10;6.40;;;11.30;1.00;;;;;;5048453;28;20974;-55
2023/04/17 06:00:33;;;;;;;6.93;5.70;;;11.50;1.00;;;;;;5052192;28;21422;-55
2023/04/17 06:03:00;;;;;;;5.90;5.40;;;11.50;1.00;;;;;;5044296;28;20205;-55
2023/04/17 06:05:26;;;;;;;6.93;6.33;;;11.40;1.00;;;;;;5044761;28;20851;-55
2023/04/17 06:07:52;;;;;;;7.00;6.30;;;11.40;1.00;;;;;;5050594;28;20449;-54
2023/04/17 06:10:18;;;;;;;8.00;7.13;;;11.40;1.00;;;;;;5050815;28;20516;-56
2023/04/17 06:12:44;;;;;;;6.70;6.10;;;11.40;1.00;;;;;;5044401;28;20451;-54
2023/04/17 06:15:10;;;;;;;7.43;6.63;;;11.40;1.00;;;;;;5043532;28;21009;-54
2023/04/17 06:17:36;;;;;;;8.43;6.83;;;11.30;1.00;;;;;;5046539;28;21020;-54
2023/04/17 06:20:06;;;;;;;9.63;7.27;;;11.20;1.00;;;;;;5042508;28;20447;-56
2023/04/17 06:22:32;;;;;;;8.00;6.63;;;11.20;1.00;;;;;;5041284;28;20450;-54
2023/04/17 06:24:58;;;;;;;7.43;6.70;;;11.30;1.00;;;;;;5047881;28;20454;-54
2023/04/17 06:27:23;;;;;;;6.90;5.63;;;11.30;1.00;;;;;;5048993;28;20189;-54
2023/04/17 06:29:49;;;;;;;5.80;4.97;;;11.40;1.00;;;;;;5045366;28;20262;-54
2023/04/17 06:32:15;;;;;;;4.83;4.20;;;11.30;1.00;;;;;;5047781;28;20197;-54
2023/04/17 06:34:41;;;;;;;6.30;4.70;;;11.40;1.00;;;;;;5040666;28;20187;-56
2023/04/17 06:37:07;;;;;;;7.93;5.40;;;11.50;1.00;;;;;;5042411;28;20577;-53
2023/04/17 06:39:33;;;;;;;5.93;5.17;;;11.40;1.00;;;;;;5041807;28;20483;-54
2023/04/17 06:41:58;;;;;;;7.73;5.90;;;11.40;1.00;;;;;;5041810;28;20224;-55
2023/04/17 06:44:24;;;;;;;4.77;4.37;;;11.40;1.00;;;;;;5037038;28;20196;-55
2023/04/17 06:46:51;;;;;;;5.70;5.20;;;11.40;1.00;;;;;;5046560;28;20200;-55
2023/04/17 06:49:17;;;;;;;7.40;6.20;;;11.20;1.00;;;;;;5044119;28;20447;-55
2023/04/17 06:51:44;;;;;;;9.27;6.17;;;11.50;1.00;;;;;;5039050;28;20446;-54
2023/04/17 06:54:10;;;;;;;6.57;5.93;;;11.60;1.00;;;;;;5040663;28;20679;-55
2023/04/17 06:56:36;;;;;;;6.87;6.27;;;11.60;1.00;;;;;;5046896;28;20562;-55
2023/04/17 06:59:02;;;;;;;8.37;6.60;;;11.60;1.00;;;;;;5042778;28;20457;-55
2023/04/17 07:01:30;;;;;;;5.80;5.17;;;11.80;1.00;;;;;;5046227;28;20196;-53
2023/04/17 07:03:56;;;;;;;7.73;5.77;;;11.90;1.00;;;;;;5043481;28;20478;-53
2023/04/17 07:06:23;;;;;;;6.13;5.53;;;11.90;1.00;;;;;;5042074;28;20450;-58
2023/04/17 07:08:49;;;;;;;6.07;5.47;;;11.90;1.00;;;;;;5043082;28;20425;-55
2023/04/17 07:11:15;;;;;;;5.30;4.80;;;11.90;1.00;;;;;;5041057;28;20485;-54
2023/04/17 07:13:40;;;;;;;5.57;4.73;;;11.80;1.00;;;;;;5041210;28;20443;-54
2023/04/17 07:16:07;;;;;;;5.60;5.07;;;11.70;1.00;;;;;;5044841;28;20475;-54
2023/04/17 07:18:32;;;;;;;4.53;4.13;;;11.70;1.00;;;;;;5046104;28;20192;-54
2023/04/17 07:20:58;;;;;;;4.57;4.17;;;11.70;1.00;;;;;;5043716;28;20450;-53
2023/04/17 07:23:24;;;;;;;5.37;4.97;;;11.70;1.00;;;;;;5046926;28;20199;-54
2023/04/17 07:25:49;;;;;;;4.23;3.83;;;11.80;1.00;;;;;;5041764;28;20196;-55
2023/04/17 07:28:16;;;;;;;4.97;4.57;;;11.90;1.00;;;;;;5042826;28;20220;-54
2023/04/17 07:30:41;;;;;;;5.10;4.70;;;11.80;1.00;;;;;;5040897;28;20236;-55
2023/04/17 07:33:07;;;;;;;5.33;4.83;;;11.70;1.00;;;;;;5043475;28;20454;-54
2023/04/17 07:35:33;;;;;;;4.80;4.40;;;11.80;1.00;;;;;;5040379;28;20176;-53
2023/04/17 07:38:00;;;;;;;9.10;7.10;;;11.70;1.00;;;;;;5041544;28;20538;-54
2023/04/17 07:40:27;;;;;;;8.27;7.37;;;11.50;1.00;;;;;;5042527;28;20667;-54
2023/04/17 07:42:55;;;;;;;7.30;6.60;;;11.40;1.00;;;;;;5049337;28;21026;-53
2023/04/17 07:45:20;;;;;;;6.17;5.47;;;11.40;1.00;;;;;;5050131;28;20903;-54
2023/04/17 07:47:46;;;;;;;7.80;7.10;;;11.40;1.00;;;;;;5050756;28;20458;-55
2023/04/17 07:50:12;;;;;;;5.20;4.70;;;11.40;1.00;;;;;;5052747;28;20467;-54
2023/04/17 07:52:38;;;;;;;3.97;3.67;;;11.50;1.00;;;;;;5054586;28;20188;-55
2023/04/17 07:55:04;;;;;;;4.70;4.30;;;11.40;1.00;;;;;;5049776;28;20640;-55
2023/04/17 07:57:31;;;;;;;4.50;4.10;;;11.30;1.00;;;;;;5044613;28;20196;-53
2023/04/17 07:59:57;;;;;;;3.60;3.30;;;11.40;1.00;;;;;;5045727;28;20417;-53
2023/04/17 08:02:23;;;;;;;4.10;3.70;;;11.40;1.00;;;;;;5044791;28;20861;-56
2023/04/17 08:04:48;;;;;;;4.03;3.63;;;11.40;1.00;;;;;;5042582;28;20184;-54
2023/04/17 08:07:14;;;;;;;3.90;3.60;;;11.50;1.00;;;;;;5043391;28;20189;-53
2023/04/17 08:09:40;;;;;;;2.90;2.70;;;11.40;1.00;;;;;;5040148;28;20205;-54
2023/04/17 08:12:05;;;;;;;3.50;3.20;;;11.30;1.00;;;;;;5041250;28;20189;-54
2023/04/17 08:14:31;;;;;;;2.80;2.60;;;11.30;1.00;;;;;;5040162;28;20189;-54
2023/04/17 08:16:57;;;;;;;3.53;3.17;;;11.40;1.00;;;;;;5037886;28;20220;-56
2023/04/17 08:19:23;;;;;;;2.90;2.70;;;11.60;1.00;;;;;;5040562;28;20489;-54
2023/04/17 08:21:49;;;;;;;3.10;2.90;;;11.40;1.00;;;;;;5040885;28;20622;-54
2023/04/17 08:24:16;;;;;;;2.70;2.50;;;11.30;1.00;;;;;;5033477;28;20673;-54
2023/04/17 08:26:42;;;;;;;3.50;3.20;;;11.30;1.00;;;;;;5043552;28;20795;-55
2023/04/17 08:29:07;;;;;;;2.93;2.73;;;11.40;1.00;;;;;;5041512;28;20429;-54
2023/04/17 08:31:35;;;;;;;2.47;2.27;;;11.50;1.00;;;;;;5044907;28;20475;-53
2023/04/17 08:34:02;;;;;;;3.00;2.60;;;11.30;1.00;;;;;;5040728;28;20696;-55
2023/04/17 08:36:28;;;;;;;5.20;4.70;;;11.20;1.00;;;;;;5029958;28;20454;-54
2023/04/17 08:38:55;;;;;;;3.27;3.00;;;11.40;1.00;;;;;;5038760;28;20456;-54
2023/04/17 08:41:24;;;;;;;3.13;2.90;;;11.40;1.00;;;;;;5042323;28;20477;-56
2023/04/17 08:43:50;;;;;;;3.87;3.57;;;11.50;1.00;;;;;;5038891;28;20533;-55
2023/04/17 08:46:19;;;;;;;2.90;2.70;;;11.60;1.00;;;;;;5043943;28;20476;-55
2023/04/17 08:48:45;;;;;;;3.30;3.00;;;11.80;1.00;;;;;;5037089;28;20447;-55
2023/04/17 08:51:12;;;;;;;3.10;2.90;;;11.80;1.00;;;;;;5044185;28;20512;-55
2023/04/17 08:53:37;;;;;;;4.50;3.83;;;11.70;1.00;;;;;;5044810;28;20181;-54
2023/04/17 08:56:06;;;;;;;4.23;3.83;;;11.70;1.00;;;;;;5045226;28;20485;-53
2023/04/17 08:58:32;;;;;;;5.87;4.27;;;11.50;1.00;;;;;;5036581;28;20268;-54
2023/04/17 09:01:10;;;;;;;5.83;4.63;;;11.50;1.00;;;;;;5039570;28;20446;-57
2023/04/17 09:03:43;;;;;;;5.10;4.60;;;11.30;1.00;;;;;;5042735;28;20556;-55
2023/04/17 09:06:10;;;;;;;4.83;4.43;;;11.20;1.00;;;;;;5037424;28;20483;-54
2023/04/17 09:08:36;;;;;;;5.63;5.10;;;11.30;1.00;;;;;;5042026;28;20451;-54
2023/04/17 09:11:02;;;;;;;5.77;5.13;;;11.40;1.00;;;;;;5041628;28;20864;-54
2023/04/17 09:13:29;;;;;;;5.40;4.70;;;11.60;1.00;;;;;;5041095;28;20451;-54
2023/04/17 09:16:08;;;;;;;6.73;5.53;;;11.70;1.00;;;;;;5042071;28;20193;-53
2023/04/17 09:18:34;;;;;;;6.10;5.57;;;11.70;1.00;;;;;;5038826;28;20452;-54
2023/04/17 09:21:01;;;;;;;6.10;5.50;;;11.80;1.00;;;;;;5039067;28;20968;-53
2023/04/17 09:23:28;;;;;;;5.50;5.00;;;12.00;1.00;;;;;;5032944;28;20818;-54
2023/04/17 09:26:08;;;;;;;6.63;5.67;;;12.30;1.00;;;;;;5044877;28;20446;-55
2023/04/17 09:28:35;;;;;;;6.27;5.77;;;12.50;1.00;;;;;;5032735;28;20766;-55
2023/04/17 09:31:06;;;;;;;7.10;6.40;;;12.70;1.00;;;;;;5040924;28;20501;-54
2023/04/17 09:33:31;;;;;;;7.07;6.47;;;12.70;1.00;;;;;;5038955;28;20454;-54
2023/04/17 09:36:20;;;;;;;9.20;7.40;;;12.70;1.00;;;;;;5034470;28;20448;-56
2023/04/17 09:38:46;;;;;;;7.20;6.60;;;12.70;1.00;;;;;;5038034;28;20196;-55
2023/04/17 09:41:32;;;;;;;7.60;6.90;;;12.70;1.00;;;;;;5039298;28;20435;-54
2023/04/17 09:44:04;;;;;;;8.30;7.47;;;12.50;1.00;;;;;;5041480;28;20622;-56
2023/04/17 09:46:34;;;;;;;16.27;8.93;;;12.50;1.00;;;;;;5040083;28;20501;-54
2023/04/17 09:49:21;;;;;;;11.80;10.60;;;12.60;1.00;;;;;;5036707;28;20455;-56
2023/04/17 09:51:52;;;;;;;10.67;8.53;;;12.60;1.00;;;;;;5035409;28;20447;-53
2023/04/17 09:54:19;;;;;;;8.33;6.70;;;12.70;1.00;;;;;;5004351;28;20541;-55
2023/04/17 09:56:48;;;;;;;8.97;8.10;;;12.60;1.00;;;;;;5043269;28;20478;-55
2023/04/17 09:59:15;;;;;;;12.53;10.17;;;12.90;1.00;;;;;;5039638;28;20470;-55
2023/04/17 10:01:41;;;;;;;10.67;7.73;;;13.00;1.00;;;;;;5042749;28;20451;-53
2023/04/17 10:04:07;;;;;;;8.40;7.57;;;12.90;1.00;;;;;;5044753;28;20447;-55
2023/04/17 10:06:34;;;;;;;15.37;11.10;;;12.90;1.00;;;;;;5040575;28;20492;-54
2023/04/17 10:09:01;;;;;;;12.00;10.80;;;12.70;1.00;;;;;;5045396;28;20534;-55
2023/04/17 10:11:32;;;;;;;9.93;8.93;;;12.60;1.00;;;;;;5041348;28;20531;-56
2023/04/17 10:14:31;;;;;;;11.17;9.67;;;12.70;1.00;;;;;;5041924;28;20975;-55
2023/04/17 10:16:57;;;;;;;9.47;8.10;;;12.70;1.00;;;;;;5034983;28;20966;-55
2023/04/17 10:19:30;;;;;;;15.63;13.03;;;12.80;1.00;;;;;;5042107;28;20451;-55
2023/04/17 10:22:14;;;;;;;9.40;8.40;;;12.90;1.00;;;;;;5033599;28;20443;-56
2023/04/17 10:24:44;;;;;;;8.60;7.70;;;13.10;1.00;;;;;;5041130;28;20447;-54
2023/04/17 10:27:27;;;;;;;7.10;6.40;;;13.40;1.00;;;;;;5037292;28;20914;-55
2023/04/17 10:29:54;;;;;;;6.97;5.30;;;13.40;1.00;;;;;;5041449;28;20551;-55
2023/04/17 10:32:23;;;;;;;4.80;4.40;;;13.30;1.00;;;;;;5031115;28;20431;-54
2023/04/17 10:34:49;;;;;;;6.37;5.77;;;13.10;1.00;;;;;;5037631;28;21033;-55
2023/04/17 10:37:14;;;;;;;6.00;5.40;;;13.20;1.00;;;;;;5039162;28;20504;-55
2023/04/17 10:39:50;;;;;;;4.90;4.47;;;13.40;1.00;;;;;;5032546;28;21441;-54
2023/04/17 10:42:19;;;;;;;6.63;5.30;;;13.30;1.00;;;;;;5041952;28;20191;-56
2023/04/17 10:44:46;;;;;;;5.90;5.30;;;13.40;1.00;;;;;;5041013;28;20451;-54
2023/04/17 10:47:14;;;;;;;7.33;6.70;;;13.60;1.00;;;;;;5046150;28;21148;-55
2023/04/17 10:49:49;;;;;;;6.30;5.80;;;13.70;1.00;;;;;;5041050;28;20442;-56
2023/04/17 10:52:39;;;;;;;6.33;5.83;;;13.90;1.00;;;;;;5060963;28;20441;-54
2023/04/17 10:55:06;;;;;;;6.57;5.97;;;13.60;1.00;;;;;;5040321;28;21004;-55
2023/04/17 10:57:54;;;;;;;6.97;5.40;;;13.40;1.00;;;;;;5047170;28;20946;-54
2023/04/17 11:00:28;;;;;;;6.50;5.90;;;13.10;1.00;;;;;;5047849;28;20811;-56
2023/04/17 11:02:54;;;;;;;5.73;5.13;;;13.00;1.00;;;;;;5046116;28;20464;-53
2023/04/17 11:05:21;;;;;;;6.10;5.60;;;12.80;1.00;;;;;;5037919;28;20470;-53
2023/04/17 11:07:49;;;;;;;6.13;5.60;;;12.70;1.00;;;;;;5045790;28;20208;-55
2023/04/17 11:10:20;;;;;;;6.17;5.57;;;12.70;1.00;;;;;;5045264;28;20549;-55
2023/04/17 11:12:57;;;;;;;6.90;6.03;;;12.60;1.00;;;;;;5050038;28;21103;-54
2023/04/17 11:15:30;;;;;;;6.70;5.77;;;12.50;1.00;;;;;;5043767;28;20509;-55
2023/04/17 11:17:57;;;;;;;6.30;5.80;;;12.70;1.00;;;;;;5040435;28;20447;-55
2023/04/17 11:20:25;;;;;;;10.93;6.60;;;12.70;1.00;;;;;;5044977;28;21268;-54
2023/04/17 11:22:50;;;;;;;6.13;5.60;;;12.70;1.00;;;;;;5042959;28;20482;-54
2023/04/17 11:25:24;;;;;;;8.30;6.70;;;12.70;1.00;;;;;;5043995;28;20503;-55
2023/04/17 11:28:01;;;;;;;6.80;5.93;;;12.80;1.00;;;;;;5043881;28;20187;-54
2023/04/17 11:30:32;;;;;;;11.00;7.13;;;12.60;1.00;;;;;;5039195;28;21460;-53
2023/04/17 11:32:59;;;;;;;7.70;6.43;;;12.40;1.00;;;;;;5039964;28;20481;-56
2023/04/17 11:35:37;;;;;;;7.00;6.40;;;12.50;1.00;;;;;;5038446;28;20829;-55
2023/04/17 11:38:10;;;;;;;7.73;6.90;;;12.60;1.00;;;;;;5038954;28;21089;-54
2023/04/17 11:40:41;;;;;;;7.20;6.60;;;12.60;1.00;;;;;;5041022;28;20493;-54
2023/04/17 11:43:07;;;;;;;7.80;7.10;;;12.60;1.00;;;;;;5042684;28;20430;-54
2023/04/17 11:45:34;;;;;;;7.10;6.40;;;12.80;1.00;;;;;;5043266;28;21096;-54
2023/04/17 11:48:01;;;;;;;8.90;7.80;;;12.90;1.00;;;;;;5039051;28;20979;-54
2023/04/17 11:50:31;;;;;;;8.17;6.73;;;12.90;1.00;;;;;;5040420;28;20463;-55
2023/04/17 11:52:59;;;;;;;10.10;7.57;;;13.00;1.00;;;;;;5040177;28;20827;-55
2023/04/17 11:55:29;;;;;;;8.90;8.00;;;13.10;1.00;;;;;;5038848;28;20502;-54
2023/04/17 11:57:56;;;;;;;7.67;6.97;;;13.20;1.00;;;;;;5035605;28;20547;-54
2023/04/17 12:00:26;;;;;;;8.60;7.63;;;13.30;1.00;;;;;;5039273;28;20474;-56
2023/04/17 12:02:52;;;;;;;8.40;7.47;;;13.40;1.00;;;;;;5040689;28;20419;-55
2023/04/17 12:05:18;;;;;;;7.60;6.63;;;13.40;1.00;;;;;;5041245;28;20960;-55
2023/04/17 12:07:44;;;;;;;7.70;7.10;;;13.30;1.00;;;;;;5040959;28;20429;-53
2023/04/17 12:10:10;;;;;;;7.90;6.90;;;13.10;1.00;;;;;;5039093;28;20474;-53
2023/04/17 12:12:36;;;;;;;7.80;7.00;;;12.80;1.00;;;;;;5042766;28;20733;-55
2023/04/17 12:15:02;;;;;;;8.70;6.47;;;12.60;1.00;;;;;;5038121;28;20534;-54
2023/04/17 12:17:28;;;;;;;7.87;7.00;;;12.30;1.00;;;;;;5043298;28;20199;-54
2023/04/17 12:19:54;;;;;;;8.23;6.50;;;12.20;1.00;;;;;;5043364;28;20409;-55
2023/04/17 12:22:20;;;;;;;8.17;6.60;;;12.10;1.00;;;;;;5040232;28;20461;-55
2023/04/17 12:24:46;;;;;;;7.63;6.87;;;12.20;1.00;;;;;;5041111;28;20421;-57
2023/04/17 12:27:11;;;;;;;7.83;7.03;;;12.30;1.00;;;;;;5042169;28;20184;-55
2023/04/17 12:29:37;;;;;;;8.33;7.47;;;12.40;1.00;;;;;;5036137;28;20744;-54
2023/04/17 12:32:02;;;;;;;8.40;6.70;;;12.30;1.00;;;;;;5041968;28;20195;-53
2023/04/17 12:34:28;;;;;;;7.73;6.80;;;12.30;1.00;;;;;;5038650;28;20184;-54
2023/04/17 12:36:53;;;;;;;7.43;6.73;;;12.30;1.00;;;;;;5039722;28;20216;-55
2023/04/17 12:39:19;;;;;;;8.90;7.77;;;12.40;1.00;;;;;;5041253;28;20193;-54
2023/04/17 12:41:45;;;;;;;7.33;6.70;;;12.40;1.00;;;;;;5046236;28;20260;-54
2023/04/17 12:44:10;;;;;;;7.50;6.90;;;12.50;1.00;;;;;;5042026;28;20198;-54
2023/04/17 12:46:36;;;;;;;9.77;6.80;;;12.60;1.00;;;;;;5044516;28;20619;-54
2023/04/17 12:49:02;;;;;;;8.07;6.30;;;12.70;1.00;;;;;;5043539;28;20184;-54
2023/04/17 12:51:28;;;;;;;7.20;6.50;;;12.70;1.00;;;;;;5049627;28;20386;-53